createdAt,value
2018-09-23T00:04:20.766Z,10.83
2018-09-23T00:14:21.293Z,10.77
2018-09-23T00:24:20.631Z,10.76
2018-09-23T00:34:21.783Z,10.75
2018-09-23T00:44:21.558Z,10.69
2018-09-23T00:54:20.646Z,10.70
2018-09-23T01:04:20.671Z,10.68
2018-09-23T01:14:21.695Z,10.64
2018-09-23T01:24:20.695Z,10.69
2018-09-23T01:34:20.737Z,10.71
2018-09-23T01:44:21.746Z,10.67
2018-09-23T01:54:20.734Z,10.73
2018-09-23T02:04:20.644Z,10.76
2018-09-23T02:14:20.669Z,10.72
2018-09-23T02:24:20.641Z,10.81
2018-09-23T02:34:20.574Z,10.85
2018-09-23T02:44:20.580Z,10.82
2018-09-23T02:54:20.641Z,10.79
2018-09-23T03:04:20.635Z,10.80
2018-09-23T03:14:20.585Z,10.91
2018-09-23T03:24:20.599Z,10.92
2018-09-23T03:34:20.927Z,10.92
2018-09-23T03:44:21.275Z,10.93
2018-09-23T03:54:20.859Z,10.96
2018-09-23T04:04:20.806Z,10.96
2018-09-23T04:14:20.565Z,10.98
2018-09-23T04:24:20.637Z,10.94
2018-09-23T04:34:20.592Z,10.97
2018-09-23T04:44:20.578Z,11.06
2018-09-23T04:54:20.671Z,11.00
2018-09-23T05:04:20.749Z,11.08
2018-09-23T05:14:20.886Z,11.05
2018-09-23T05:24:20.804Z,11.19
2018-09-23T05:34:20.612Z,11.08
2018-09-23T05:44:20.653Z,11.23
2018-09-23T05:54:20.632Z,11.31
2018-09-23T06:04:20.599Z,11.30
2018-09-23T06:14:20.639Z,11.41
2018-09-23T06:24:20.618Z,11.52
2018-09-23T06:34:20.693Z,11.71
2018-09-23T06:44:20.616Z,11.91
2018-09-23T06:54:20.653Z,12.04
2018-09-23T07:04:20.699Z,12.14
2018-09-23T07:14:20.593Z,12.33
2018-09-23T07:24:20.635Z,12.32
2018-09-23T07:34:20.505Z,12.32
2018-09-23T07:44:20.596Z,12.44
2018-09-23T07:54:20.766Z,12.64
2018-09-23T08:04:20.528Z,12.75
2018-09-23T08:14:20.984Z,13.33
2018-09-23T08:24:20.512Z,13.59
2018-09-23T08:34:20.537Z,13.43
2018-09-23T08:44:24.407Z,13.45
2018-09-23T08:54:20.848Z,13.64
2018-09-23T09:04:20.582Z,13.51
2018-09-23T09:14:21.385Z,13.68
2018-09-23T09:24:21.523Z,13.67
2018-09-23T09:34:20.659Z,13.96
2018-09-23T09:44:21.403Z,14.17
2018-09-23T09:54:20.572Z,14.60
2018-09-23T10:04:20.633Z,14.83
2018-09-23T10:14:20.597Z,14.31
2018-09-23T10:24:21.502Z,13.65
2018-09-23T10:34:20.631Z,13.44
2018-09-23T10:44:20.562Z,13.22
2018-09-23T10:54:20.617Z,13.22
2018-09-23T11:04:20.658Z,13.00
2018-09-23T11:14:20.645Z,12.99
2018-09-23T11:24:20.627Z,12.92
2018-09-23T11:34:20.638Z,12.27
2018-09-23T11:44:20.636Z,12.13
2018-09-23T11:54:20.700Z,12.04
2018-09-23T12:04:20.613Z,12.14
2018-09-23T12:14:20.659Z,11.95
2018-09-23T12:24:20.594Z,11.78
2018-09-23T12:34:20.548Z,11.56
2018-09-23T12:44:20.615Z,11.47
2018-09-23T12:54:20.595Z,11.29
2018-09-23T13:04:20.590Z,11.41
2018-09-23T13:14:20.668Z,11.30
2018-09-23T13:24:20.620Z,11.33
2018-09-23T13:34:20.593Z,11.65
2018-09-23T13:44:20.632Z,11.58
2018-09-23T13:54:20.610Z,11.37
2018-09-23T14:04:20.646Z,11.27
2018-09-23T14:14:20.605Z,11.01
2018-09-23T14:24:20.600Z,11.10
2018-09-23T14:34:20.739Z,10.90
2018-09-23T14:44:20.670Z,10.73
2018-09-23T14:54:20.615Z,10.42
2018-09-23T15:04:20.622Z,10.32
2018-09-23T15:14:20.595Z,10.36
2018-09-23T15:24:21.589Z,10.26
2018-09-23T15:34:20.651Z,10.27
2018-09-23T15:44:20.629Z,10.22
2018-09-23T15:54:20.611Z,10.27
2018-09-23T16:04:20.743Z,10.28
2018-09-23T16:14:20.640Z,10.24
2018-09-23T16:24:20.607Z,10.09
2018-09-23T16:34:20.628Z,9.97
2018-09-23T16:44:20.573Z,10.02
2018-09-23T16:54:20.938Z,9.69
2018-09-23T17:04:20.639Z,9.50
2018-09-23T17:14:20.568Z,9.35
2018-09-23T17:24:20.798Z,9.32
2018-09-23T17:34:20.533Z,9.33
2018-09-23T17:44:20.566Z,9.26
2018-09-23T17:54:20.597Z,8.91
2018-09-23T18:04:20.625Z,8.84
2018-09-23T18:14:20.635Z,8.93
2018-09-23T18:24:20.671Z,8.92
2018-09-23T18:34:20.578Z,8.91
2018-09-23T18:44:20.670Z,8.86
2018-09-23T18:54:20.619Z,8.81
2018-09-23T19:04:20.679Z,8.81
2018-09-23T19:14:20.534Z,8.76
2018-09-23T19:24:21.550Z,8.68
2018-09-23T19:34:20.822Z,8.67
2018-09-23T19:44:20.650Z,8.62
2018-09-23T19:54:20.583Z,8.63
2018-09-23T20:04:20.576Z,8.66
2018-09-23T20:14:20.585Z,8.73
2018-09-23T20:24:20.546Z,8.72
2018-09-23T20:34:20.538Z,8.73
2018-09-23T20:44:20.634Z,8.68
2018-09-23T20:54:20.602Z,8.68
2018-09-23T21:04:20.552Z,8.66
2018-09-23T21:14:21.158Z,8.71
2018-09-23T21:24:20.606Z,8.74
2018-09-23T21:34:20.625Z,8.75
2018-09-23T21:44:20.498Z,8.76
2018-09-23T21:54:20.556Z,8.80
2018-09-23T22:04:20.575Z,8.81
2018-09-23T22:14:20.524Z,8.84
2018-09-23T22:24:20.570Z,8.80
2018-09-23T22:34:20.527Z,8.71
2018-09-23T22:44:20.590Z,8.63
2018-09-23T22:54:20.608Z,8.53
2018-09-23T23:04:20.549Z,8.47
2018-09-23T23:14:20.610Z,8.45
2018-09-23T23:24:20.594Z,8.41
2018-09-23T23:34:21.327Z,8.39
2018-09-23T23:44:20.588Z,8.23
2018-09-23T23:54:20.552Z,8.14
